createdAt,value
2023-05-05T00:01:51.642Z,100667.75
2023-05-05T00:04:26.479Z,100669.38
2023-05-05T00:07:25.114Z,100677.98
2023-05-05T00:09:53.678Z,100677.25
2023-05-05T00:12:33.934Z,100676.73
2023-05-05T00:15:12.178Z,100670.61
2023-05-05T00:17:47.440Z,100669.48
2023-05-05T00:21:10.154Z,100666.05
2023-05-05T00:23:41.992Z,100661.79
2023-05-05T00:26:19.573Z,100656.49
2023-05-05T00:29:19.513Z,100656.40
2023-05-05T00:32:12.388Z,100657.28
2023-05-05T00:35:01.132Z,100655.84
2023-05-05T00:37:40.920Z,100659.28
2023-05-05T00:40:20.714Z,100650.40
2023-05-05T00:42:52.600Z,100652.76
2023-05-05T00:45:47.872Z,100645.90
2023-05-05T00:48:33.997Z,100648.38
2023-05-05T00:51:26.744Z,100649.14
2023-05-05T00:53:59.065Z,100644.56
2023-05-05T00:56:38.972Z,100644.05
2023-05-05T00:59:18.721Z,100642.84
2023-05-05T01:01:53.096Z,100638.97
2023-05-05T01:04:32.366Z,100635.38
2023-05-05T01:07:17.942Z,100634.58
2023-05-05T01:10:20.114Z,100633.91
2023-05-05T01:13:23.426Z,100633.27
2023-05-05T01:16:06.353Z,100629.88
2023-05-05T01:18:55.506Z,100626.92
2023-05-05T01:22:01.468Z,100627.92
2023-05-05T01:24:53.588Z,100623.83
2023-05-05T01:27:55.721Z,100625.62
2023-05-05T01:30:48.921Z,100627.63
2023-05-05T01:33:37.473Z,100627.40
2023-05-05T01:36:13.740Z,100624.14
2023-05-05T01:38:48.612Z,100620.70
2023-05-05T01:41:27.184Z,100619.29
2023-05-05T01:44:14.724Z,100621.63
2023-05-05T01:46:54.308Z,100626.66
2023-05-05T01:49:33.188Z,100626.14
2023-05-05T01:52:09.961Z,100626.08
2023-05-05T01:54:43.151Z,100629.13
2023-05-05T01:57:27.180Z,100626.73
2023-05-05T02:00:00.146Z,100627.06
2023-05-05T02:02:41.383Z,100623.48
2023-05-05T02:05:23.056Z,100623.55
2023-05-05T02:08:05.857Z,100619.28
2023-05-05T02:10:48.135Z,100616.02
2023-05-05T02:13:19.689Z,100614.96
2023-05-05T02:15:51.122Z,100615.84
2023-05-05T02:18:23.545Z,100608.35
2023-05-05T02:20:55.411Z,100603.83
2023-05-05T02:23:58.548Z,100604.52
2023-05-05T02:26:38.158Z,100602.28
2023-05-05T02:29:27.509Z,100586.14
2023-05-05T02:32:02.834Z,100599.97
2023-05-05T02:34:43.526Z,100597.23
2023-05-05T02:37:27.472Z,100591.39
2023-05-05T02:40:20.196Z,100590.61
2023-05-05T02:42:53.860Z,100592.40
2023-05-05T02:45:39.910Z,100596.21
2023-05-05T02:48:13.418Z,100601.03
2023-05-05T02:50:45.282Z,100603.18
2023-05-05T02:53:28.286Z,100604.88
2023-05-05T02:56:41.734Z,100611.41
2023-05-05T02:59:31.519Z,100613.84
2023-05-05T03:02:17.093Z,100617.88
2023-05-05T03:05:26.135Z,100612.19
2023-05-05T03:08:10.230Z,100618.52
2023-05-05T03:11:04.266Z,100624.41
2023-05-05T03:13:43.275Z,100628.81
2023-05-05T03:16:18.870Z,100628.52
2023-05-05T03:18:58.773Z,100628.27
2023-05-05T03:22:00.132Z,100629.69
2023-05-05T03:24:34.961Z,100630.31
2023-05-05T03:27:12.658Z,100635.42
2023-05-05T03:29:59.692Z,100631.98
2023-05-05T03:32:51.872Z,100625.09
2023-05-05T03:35:36.154Z,100623.99
2023-05-05T03:38:19.189Z,100625.44
2023-05-05T03:41:14.302Z,100629.55
2023-05-05T03:43:46.542Z,100631.15
2023-05-05T03:46:25.896Z,100631.86
2023-05-05T03:48:57.397Z,100635.30
2023-05-05T03:51:27.064Z,100633.40
2023-05-05T03:53:58.926Z,100635.48
2023-05-05T03:56:33.236Z,100634.59
2023-05-05T03:59:10.821Z,100636.35
2023-05-05T04:01:50.797Z,100635.39
2023-05-05T04:04:28.643Z,100631.05
2023-05-05T04:07:08.622Z,100632.21
2023-05-05T04:09:48.994Z,100631.21
2023-05-05T04:12:23.110Z,100633.96
2023-05-05T04:14:55.169Z,100637.15
2023-05-05T04:17:26.653Z,100636.80
2023-05-05T04:20:15.259Z,100636.98
2023-05-05T04:23:01.470Z,100634.79
2023-05-05T04:25:46.644Z,100633.40
2023-05-05T04:28:22.410Z,100631.85
2023-05-05T04:30:51.819Z,100631.84
2023-05-05T04:33:28.555Z,100633.90
2023-05-05T04:35:58.613Z,100638.46
2023-05-05T04:38:30.497Z,100636.84
2023-05-05T04:41:06.471Z,100642.30
2023-05-05T04:43:43.502Z,100648.70
2023-05-05T04:46:17.487Z,100646.72
2023-05-05T04:48:47.837Z,100648.29
2023-05-05T04:51:32.736Z,100649.20
2023-05-05T04:54:08.959Z,100646.94
2023-05-05T04:56:40.020Z,100643.88
2023-05-05T04:59:17.603Z,100642.93
2023-05-05T05:01:49.284Z,100646.57
2023-05-05T05:04:22.592Z,100651.36
2023-05-05T05:06:53.275Z,100660.38
2023-05-05T05:09:22.488Z,100656.75
2023-05-05T05:11:54.244Z,100659.27
2023-05-05T05:14:22.925Z,100649.03
2023-05-05T05:16:52.772Z,100662.25
2023-05-05T05:19:22.814Z,100663.70
2023-05-05T05:21:51.269Z,100667.75
2023-05-05T05:24:20.014Z,100670.05
2023-05-05T05:26:53.431Z,100668.14
2023-05-05T05:29:22.414Z,100672.02
2023-05-05T05:31:53.929Z,100674.88
2023-05-05T05:34:22.962Z,100677.73
2023-05-05T05:36:52.155Z,100680.75
2023-05-05T05:39:22.072Z,100682.77
2023-05-05T05:41:54.233Z,100683.58
2023-05-05T05:44:27.933Z,100689.08
2023-05-05T05:47:00.717Z,100687.43
2023-05-05T05:49:29.819Z,100684.98
2023-05-05T05:51:58.588Z,100680.65
2023-05-05T05:54:29.646Z,100687.84
2023-05-05T05:56:58.334Z,100689.34
2023-05-05T05:59:31.829Z,100689.59
2023-05-05T06:02:06.403Z,100691.49
2023-05-05T06:04:35.927Z,100687.52
2023-05-05T06:07:12.847Z,100684.79
2023-05-05T06:09:41.874Z,100681.77
2023-05-05T06:12:13.082Z,100687.64
2023-05-05T06:14:44.329Z,100687.63
2023-05-05T06:17:13.312Z,100694.04
2023-05-05T06:19:56.836Z,100691.96
2023-05-05T06:22:25.735Z,100690.32
2023-05-05T06:24:54.821Z,100689.55
2023-05-05T06:27:26.898Z,100678.64
2023-05-05T06:29:58.033Z,100687.23
2023-05-05T06:32:30.094Z,100691.24
2023-05-05T06:34:58.894Z,100690.40
2023-05-05T06:37:27.579Z,100692.88
2023-05-05T06:39:56.982Z,100696.27
2023-05-05T06:42:25.490Z,100697.71
2023-05-05T06:44:54.457Z,100698.20
2023-05-05T06:47:23.377Z,100700.69
2023-05-05T06:49:52.260Z,100694.20
2023-05-05T06:52:23.204Z,100695.62
2023-05-05T06:54:51.958Z,100691.24
2023-05-05T06:57:20.478Z,100688.65
2023-05-05T06:59:49.009Z,100690.79
2023-05-05T07:02:17.722Z,100684.86
2023-05-05T07:04:46.718Z,100680.61
2023-05-05T07:07:15.320Z,100686.13
2023-05-05T07:09:45.430Z,100683.89
2023-05-05T07:12:14.126Z,100684.31
2023-05-05T07:14:42.587Z,100684.11
2023-05-05T07:17:13.638Z,100682.70
2023-05-05T07:19:45.280Z,100680.23
2023-05-05T07:22:13.973Z,100681.02
2023-05-05T07:24:42.462Z,100672.54
2023-05-05T07:27:11.244Z,100680.50
2023-05-05T07:29:39.828Z,100669.04
2023-05-05T07:32:08.768Z,100679.77
2023-05-05T07:34:38.339Z,100681.25
2023-05-05T07:37:07.626Z,100682.58
2023-05-05T07:39:36.306Z,100682.30
2023-05-05T07:42:04.994Z,100684.98
2023-05-05T07:44:33.829Z,100686.84
2023-05-05T07:47:02.668Z,100683.62
2023-05-05T07:49:31.265Z,100678.79
2023-05-05T07:51:59.846Z,100679.11
2023-05-05T07:54:29.142Z,100681.75
2023-05-05T07:56:58.649Z,100681.23
2023-05-05T07:59:27.330Z,100681.39
2023-05-05T08:01:55.915Z,100677.67
2023-05-05T08:04:24.460Z,100679.23
2023-05-05T08:06:53.074Z,100674.84
2023-05-05T08:09:21.357Z,100676.02
2023-05-05T08:11:49.847Z,100676.58
2023-05-05T08:14:18.215Z,100678.12
2023-05-05T08:16:46.802Z,100677.39
2023-05-05T08:19:27.678Z,100675.70
2023-05-05T08:21:57.755Z,100678.91
2023-05-05T08:24:27.825Z,100681.69
2023-05-05T08:26:57.028Z,100679.80
2023-05-05T08:29:25.702Z,100681.23
2023-05-05T08:31:54.703Z,100679.48
2023-05-05T08:34:23.283Z,100682.73
2023-05-05T08:36:51.864Z,100684.20
2023-05-05T08:39:20.137Z,100678.58
2023-05-05T08:41:48.855Z,100678.21
2023-05-05T08:44:17.412Z,100677.15
2023-05-05T08:46:47.143Z,100681.42
2023-05-05T08:49:18.054Z,100678.67
2023-05-05T08:51:47.848Z,100671.66
2023-05-05T08:54:20.288Z,100669.17
2023-05-05T08:56:53.335Z,100673.56
2023-05-05T08:59:25.455Z,100672.64
2023-05-05T09:01:54.506Z,100670.19
2023-05-05T09:04:23.164Z,100666.83
2023-05-05T09:06:51.648Z,100668.44
2023-05-05T09:09:20.855Z,100669.55
2023-05-05T09:11:52.924Z,100665.86
2023-05-05T09:14:21.618Z,100660.95
2023-05-05T09:16:50.137Z,100662.95
2023-05-05T09:19:18.679Z,100664.53
2023-05-05T09:21:49.268Z,100664.85
2023-05-05T09:24:17.566Z,100665.38
2023-05-05T09:26:47.490Z,100661.49
2023-05-05T09:29:23.458Z,100658.13
2023-05-05T09:32:05.994Z,100654.81
2023-05-05T09:34:36.409Z,100653.16
2023-05-05T09:37:06.618Z,100653.55
2023-05-05T09:39:35.900Z,100650.45
2023-05-05T09:42:04.589Z,100651.39
2023-05-05T09:44:38.088Z,100654.80
2023-05-05T09:47:18.066Z,100655.65
2023-05-05T09:49:59.826Z,100653.55
2023-05-05T09:52:29.239Z,100654.46
2023-05-05T09:54:58.354Z,100656.31
2023-05-05T09:57:29.190Z,100654.83
2023-05-05T10:00:02.560Z,100651.67
2023-05-05T10:02:39.567Z,100651.70
2023-05-05T10:05:13.064Z,100649.69
2023-05-05T10:07:44.125Z,100648.64
2023-05-05T10:10:15.369Z,100648.79
2023-05-05T10:12:46.492Z,100652.60
2023-05-05T10:15:16.237Z,100650.11
2023-05-05T10:20:22.522Z,100641.52
2023-05-05T10:22:53.609Z,100639.77
2023-05-05T10:25:31.628Z,100642.46
2023-05-05T10:28:07.009Z,100642.56
2023-05-05T10:30:43.527Z,100644.27
2023-05-05T10:36:00.486Z,100635.83
2023-05-05T10:38:32.296Z,100641.10
2023-05-05T10:41:02.297Z,100640.20
2023-05-05T10:43:31.635Z,100635.79
2023-05-05T10:46:01.158Z,100630.32
2023-05-05T10:48:35.279Z,100627.57
2023-05-05T10:51:13.194Z,100627.89
2023-05-05T10:54:13.414Z,100629.75
2023-05-05T10:56:43.373Z,100624.91
2023-05-05T10:59:36.785Z,100622.21
2023-05-05T11:02:31.881Z,100617.63
2023-05-05T11:05:10.772Z,100614.42
2023-05-05T11:07:40.215Z,100612.63
2023-05-05T11:10:10.952Z,100612.88
2023-05-05T11:13:03.053Z,100611.95
2023-05-05T11:15:31.650Z,100613.90
2023-05-05T11:18:06.712Z,100606.23
2023-05-05T11:20:36.296Z,100598.36
2023-05-05T11:23:05.154Z,100595.91
2023-05-05T11:25:37.549Z,100593.66
2023-05-05T11:28:18.049Z,100589.77
2023-05-05T11:30:56.865Z,100586.46
2023-05-05T11:33:31.585Z,100578.64
2023-05-05T11:36:03.393Z,100582.20
2023-05-05T11:38:36.534Z,100580.38
2023-05-05T11:41:19.957Z,100580.02
2023-05-05T11:43:48.958Z,100579.71
2023-05-05T11:46:18.405Z,100570.33
2023-05-05T11:48:49.351Z,100575.27
2023-05-05T11:51:19.359Z,100577.71
2023-05-05T11:53:51.000Z,100582.13
2023-05-05T11:56:23.941Z,100579.27
2023-05-05T11:59:25.722Z,100584.52
2023-05-05T12:01:54.280Z,100578.85
2023-05-05T12:04:23.235Z,100575.96
2023-05-05T12:06:51.758Z,100574.05
2023-05-05T12:09:21.877Z,100570.80
2023-05-05T12:11:51.479Z,100567.78
2023-05-05T12:14:21.197Z,100566.38
2023-05-05T12:17:01.742Z,100563.56
2023-05-05T12:19:33.679Z,100564.98
2023-05-05T12:22:04.775Z,100566.17
2023-05-05T12:24:33.720Z,100562.67
2023-05-05T12:27:09.835Z,100563.04
2023-05-05T12:29:38.315Z,100561.03
2023-05-05T12:32:07.141Z,100555.51
2023-05-05T12:34:36.088Z,100557.33
2023-05-05T12:37:05.185Z,100554.08
2023-05-05T12:39:37.148Z,100556.89
2023-05-05T12:42:06.613Z,100555.15
2023-05-05T12:44:38.929Z,100554.84
2023-05-05T12:47:07.812Z,100553.52
2023-05-05T12:49:52.178Z,100553.70
2023-05-05T12:52:21.458Z,100553.38
2023-05-05T12:54:58.761Z,100548.73
2023-05-05T12:57:27.578Z,100543.84
2023-05-05T12:59:56.690Z,100541.25
2023-05-05T13:02:35.444Z,100544.15
2023-05-05T13:05:04.687Z,100540.22
2023-05-05T13:07:33.140Z,100537.05
2023-05-05T13:10:10.964Z,100537.52
2023-05-05T13:12:39.361Z,100533.34
2023-05-05T13:15:08.899Z,100531.80
2023-05-05T13:17:37.751Z,100533.59
2023-05-05T13:20:11.442Z,100530.22
2023-05-05T13:22:40.523Z,100530.41
2023-05-05T13:25:09.915Z,100532.64
2023-05-05T13:27:38.933Z,100527.38
2023-05-05T13:56:44.954Z,100489.98
2023-05-05T13:59:13.439Z,100488.45
2023-05-05T14:01:41.936Z,100483.50
2023-05-05T14:04:10.657Z,100480.20
2023-05-05T14:06:39.197Z,100470.69
2023-05-05T14:09:08.141Z,100470.63
2023-05-05T14:11:36.673Z,100461.84
2023-05-05T14:14:05.151Z,100471.23
2023-05-05T14:16:33.575Z,100471.98
2023-05-05T14:19:02.101Z,100468.81
2023-05-05T14:21:31.941Z,100467.31
2023-05-05T14:24:00.832Z,100471.54
2023-05-05T19:14:54.321Z,100450.08
2023-05-05T19:17:23.968Z,100453.02
2023-05-05T19:19:54.729Z,100449.26
2023-05-05T19:22:26.188Z,100447.65
2023-05-05T19:24:56.135Z,100448.90
2023-05-05T19:27:26.364Z,100451.46
2023-05-05T19:29:56.936Z,100445.38
2023-05-05T19:32:27.412Z,100450.48
2023-05-05T19:34:58.763Z,100447.03
2023-05-05T19:37:28.232Z,100450.18
2023-05-05T19:40:01.249Z,100448.76
2023-05-05T19:42:33.781Z,100449.76
2023-05-05T19:45:05.422Z,100452.31
2023-05-05T19:47:37.253Z,100448.63
2023-05-05T19:50:08.142Z,100448.05
2023-05-05T19:52:41.932Z,100445.80
2023-05-05T19:55:15.381Z,100450.32
2023-05-05T19:57:47.380Z,100450.19
2023-05-05T20:00:20.776Z,100455.65
2023-05-05T20:02:50.692Z,100453.77
2023-05-05T20:05:20.562Z,100454.24
2023-05-05T20:07:51.596Z,100452.96
2023-05-05T20:10:21.805Z,100455.68
2023-05-05T20:12:53.441Z,100456.38
2023-05-05T20:15:24.246Z,100449.04
2023-05-05T20:17:55.712Z,100447.06
2023-05-05T20:20:27.078Z,100444.59
2023-05-05T20:22:57.993Z,100446.10
2023-05-05T20:25:27.956Z,100438.51
2023-05-05T20:27:57.687Z,100439.20
2023-05-05T20:30:38.034Z,100434.49
2023-05-05T20:33:08.046Z,100431.90
2023-05-05T20:35:37.983Z,100424.92
2023-05-05T20:38:10.439Z,100425.97
2023-05-05T20:40:41.113Z,100425.34
2023-05-05T20:43:13.128Z,100416.83
2023-05-05T20:45:46.637Z,100419.95
2023-05-05T20:48:16.806Z,100418.44
2023-05-05T20:50:46.549Z,100417.05
2023-05-05T20:53:19.402Z,100412.02
2023-05-05T20:55:56.531Z,100414.68
2023-05-05T20:58:26.828Z,100414.02
2023-05-05T21:00:57.431Z,100418.03
2023-05-05T21:03:30.043Z,100417.83
2023-05-05T21:06:01.099Z,100417.52
2023-05-05T21:08:32.244Z,100414.25
2023-05-05T21:11:12.938Z,100408.83
2023-05-05T21:13:42.214Z,100410.70
2023-05-05T21:16:16.476Z,100411.88
2023-05-05T21:18:48.993Z,100407.61
2023-05-05T21:21:19.457Z,100401.39
2023-05-05T21:23:48.526Z,100397.82
2023-05-05T21:26:21.319Z,100401.48
2023-05-05T21:28:50.415Z,100397.00
2023-05-05T21:31:22.260Z,100400.52
2023-05-05T21:33:51.558Z,100396.90
2023-05-05T21:36:21.777Z,100390.11
2023-05-05T21:38:51.298Z,100393.23
2023-05-05T21:41:20.083Z,100391.02
2023-05-05T21:43:59.116Z,100390.33
2023-05-05T21:46:31.589Z,100394.23
2023-05-05T21:49:00.925Z,100398.24
2023-05-05T21:51:29.782Z,100394.45
2023-05-05T21:53:59.185Z,100396.77
2023-05-05T21:56:28.400Z,100399.00
2023-05-05T21:59:01.478Z,100402.84
2023-05-05T22:01:37.977Z,100404.50
2023-05-05T22:04:08.650Z,100406.58
2023-05-05T22:06:38.574Z,100403.96
2023-05-05T22:09:19.262Z,100396.95
2023-05-05T22:11:50.919Z,100396.85
2023-05-05T22:14:22.438Z,100397.93
2023-05-05T22:16:57.189Z,100394.08
2023-05-05T22:19:26.029Z,100396.58
2023-05-05T22:22:00.514Z,100389.06
2023-05-05T22:24:30.223Z,100393.56
2023-05-05T22:26:59.160Z,100388.36
2023-05-05T22:29:30.966Z,100383.48
2023-05-05T22:31:59.963Z,100383.69
2023-05-05T22:34:31.731Z,100380.81
2023-05-05T22:37:07.881Z,100381.56
2023-05-05T22:39:36.668Z,100385.73
2023-05-05T22:42:05.965Z,100383.93
2023-05-05T22:44:54.912Z,100387.55
2023-05-05T22:47:26.939Z,100394.02
2023-05-05T22:49:59.265Z,100391.23
2023-05-05T22:52:31.020Z,100390.15
2023-05-05T22:55:01.816Z,100388.77
2023-05-05T22:57:36.974Z,100389.34
2023-05-05T23:00:08.804Z,100391.80
2023-05-05T23:02:38.274Z,100389.08
2023-05-05T23:05:10.834Z,100384.02
2023-05-05T23:07:41.153Z,100380.98
2023-05-05T23:10:14.213Z,100380.51
2023-05-05T23:12:46.670Z,100375.85
2023-05-05T23:15:18.799Z,100373.27
2023-05-05T23:18:01.129Z,100370.73
2023-05-05T23:20:42.987Z,100369.94
2023-05-05T23:23:18.272Z,100368.48
2023-05-05T23:25:52.143Z,100364.77
2023-05-05T23:28:20.914Z,100358.45
2023-05-05T23:30:52.644Z,100355.39
2023-05-05T23:33:27.717Z,100347.58
2023-05-05T23:35:59.566Z,100343.89
2023-05-05T23:38:39.136Z,100342.47
2023-05-05T23:41:19.172Z,100345.60
2023-05-05T23:43:48.593Z,100344.66
2023-05-05T23:46:17.637Z,100337.73
2023-05-05T23:48:49.932Z,100326.41
2023-05-05T23:51:19.050Z,100324.77
2023-05-05T23:53:48.021Z,100321.30
2023-05-05T23:56:19.176Z,100317.55
2023-05-05T23:58:52.633Z,100315.20
